sensor_id;sensor_type;location;lat;lon;timestamp;P1;durP1;ratioP1;P2;durP2;ratioP2
6878;SDS011;3478;51.462;7.338;2023-06-26T00:03:41;6.13;;;5.73;;
6878;SDS011;3478;51.462;7.338;2023-06-26T00:08:45;5.73;;;5.17;;
6878;SDS011;3478;51.462;7.338;2023-06-26T00:13:46;5.40;;;5.10;;
6878;SDS011;3478;51.462;7.338;2023-06-26T00:18:48;5.70;;;5.20;;
6878;SDS011;3478;51.462;7.338;2023-06-26T00:23:53;5.17;;;4.80;;
6878;SDS011;3478;51.462;7.338;2023-06-26T00:28:55;5.53;;;5.23;;
6878;SDS011;3478;51.462;7.338;2023-06-26T00:33:57;5.53;;;5.20;;
6878;SDS011;3478;51.462;7.338;2023-06-26T00:39:00;5.03;;;4.63;;
6878;SDS011;3478;51.462;7.338;2023-06-26T00:44:03;5.07;;;4.67;;
6878;SDS011;3478;51.462;7.338;2023-06-26T00:49:05;5.70;;;5.20;;
6878;SDS011;3478;51.462;7.338;2023-06-26T00:54:09;5.00;;;4.73;;
6878;SDS011;3478;51.462;7.338;2023-06-26T00:59:11;6.10;;;5.77;;
6878;SDS011;3478;51.462;7.338;2023-06-26T01:04:12;5.27;;;4.97;;
6878;SDS011;3478;51.462;7.338;2023-06-26T01:09:19;5.13;;;4.83;;
6878;SDS011;3478;51.462;7.338;2023-06-26T01:14:21;5.17;;;4.87;;
6878;SDS011;3478;51.462;7.338;2023-06-26T01:19:24;6.03;;;5.63;;
6878;SDS011;3478;51.462;7.338;2023-06-26T01:24:31;6.10;;;5.23;;
6878;SDS011;3478;51.462;7.338;2023-06-26T01:29:38;5.50;;;5.10;;
6878;SDS011;3478;51.462;7.338;2023-06-26T01:34:41;5.70;;;5.30;;
6878;SDS011;3478;51.462;7.338;2023-06-26T01:39:44;5.97;;;5.40;;
6878;SDS011;3478;51.462;7.338;2023-06-26T01:44:48;5.13;;;4.83;;
6878;SDS011;3478;51.462;7.338;2023-06-26T01:49:54;5.00;;;4.70;;
6878;SDS011;3478;51.462;7.338;2023-06-26T01:55:02;4.80;;;4.50;;
6878;SDS011;3478;51.462;7.338;2023-06-26T02:00:08;5.23;;;4.73;;
6878;SDS011;3478;51.462;7.338;2023-06-26T02:05:12;4.93;;;4.63;;
6878;SDS011;3478;51.462;7.338;2023-06-26T02:10:14;9.73;;;5.17;;
6878;SDS011;3478;51.462;7.338;2023-06-26T02:15:17;5.57;;;5.17;;
6878;SDS011;3478;51.462;7.338;2023-06-26T02:20:19;5.50;;;5.10;;
6878;SDS011;3478;51.462;7.338;2023-06-26T02:25:22;5.90;;;5.50;;
6878;SDS011;3478;51.462;7.338;2023-06-26T02:30:25;5.20;;;4.90;;
6878;SDS011;3478;51.462;7.338;2023-06-26T02:35:27;5.57;;;5.27;;
6878;SDS011;3478;51.462;7.338;2023-06-26T02:40:29;5.63;;;5.10;;
6878;SDS011;3478;51.462;7.338;2023-06-26T02:45:32;5.47;;;5.10;;
6878;SDS011;3478;51.462;7.338;2023-06-26T02:50:34;5.40;;;5.10;;
6878;SDS011;3478;51.462;7.338;2023-06-26T02:55:36;5.80;;;5.40;;
6878;SDS011;3478;51.462;7.338;2023-06-26T03:00:39;4.70;;;4.50;;
6878;SDS011;3478;51.462;7.338;2023-06-26T03:05:41;5.80;;;5.30;;
6878;SDS011;3478;51.462;7.338;2023-06-26T03:10:43;5.40;;;5.00;;
6878;SDS011;3478;51.462;7.338;2023-06-26T03:15:46;5.37;;;5.07;;
6878;SDS011;3478;51.462;7.338;2023-06-26T03:20:48;5.30;;;4.90;;
6878;SDS011;3478;51.462;7.338;2023-06-26T03:25:50;4.73;;;4.43;;
6878;SDS011;3478;51.462;7.338;2023-06-26T03:30:54;5.40;;;5.00;;
6878;SDS011;3478;51.462;7.338;2023-06-26T03:35:56;7.70;;;7.00;;
6878;SDS011;3478;51.462;7.338;2023-06-26T03:40:59;5.60;;;5.10;;
6878;SDS011;3478;51.462;7.338;2023-06-26T03:46:02;5.27;;;4.87;;
6878;SDS011;3478;51.462;7.338;2023-06-26T03:51:04;7.00;;;6.27;;
6878;SDS011;3478;51.462;7.338;2023-06-26T03:56:06;6.40;;;5.80;;
6878;SDS011;3478;51.462;7.338;2023-06-26T04:01:10;5.20;;;4.87;;
6878;SDS011;3478;51.462;7.338;2023-06-26T04:06:12;10.20;;;5.80;;
6878;SDS011;3478;51.462;7.338;2023-06-26T04:11:13;7.00;;;6.40;;
6878;SDS011;3478;51.462;7.338;2023-06-26T04:16:17;5.50;;;5.20;;
6878;SDS011;3478;51.462;7.338;2023-06-26T04:21:21;5.27;;;4.83;;
6878;SDS011;3478;51.462;7.338;2023-06-26T04:26:24;6.37;;;5.30;;
6878;SDS011;3478;51.462;7.338;2023-06-26T04:31:29;5.40;;;5.00;;
6878;SDS011;3478;51.462;7.338;2023-06-26T04:36:31;5.37;;;5.00;;
6878;SDS011;3478;51.462;7.338;2023-06-26T04:41:33;6.10;;;5.60;;
6878;SDS011;3478;51.462;7.338;2023-06-26T04:46:38;5.57;;;5.10;;
6878;SDS011;3478;51.462;7.338;2023-06-26T04:51:41;5.40;;;5.00;;
6878;SDS011;3478;51.462;7.338;2023-06-26T04:56:43;6.33;;;5.83;;
6878;SDS011;3478;51.462;7.338;2023-06-26T05:01:48;6.10;;;5.60;;
6878;SDS011;3478;51.462;7.338;2023-06-26T05:06:50;5.80;;;5.30;;
6878;SDS011;3478;51.462;7.338;2023-06-26T05:11:52;5.90;;;5.40;;
6878;SDS011;3478;51.462;7.338;2023-06-26T05:16:55;6.40;;;5.83;;
6878;SDS011;3478;51.462;7.338;2023-06-26T05:21:57;5.90;;;5.50;;
6878;SDS011;3478;51.462;7.338;2023-06-26T05:27:03;6.20;;;5.70;;
6878;SDS011;3478;51.462;7.338;2023-06-26T05:32:08;8.53;;;6.13;;
6878;SDS011;3478;51.462;7.338;2023-06-26T05:37:11;7.40;;;6.80;;
6878;SDS011;3478;51.462;7.338;2023-06-26T05:42:19;8.40;;;7.27;;
6878;SDS011;3478;51.462;7.338;2023-06-26T05:47:24;6.93;;;6.33;;
6878;SDS011;3478;51.462;7.338;2023-06-26T05:52:26;6.90;;;6.40;;
6878;SDS011;3478;51.462;7.338;2023-06-26T05:57:28;7.13;;;6.67;;
6878;SDS011;3478;51.462;7.338;2023-06-26T06:02:32;9.93;;;8.93;;
6878;SDS011;3478;51.462;7.338;2023-06-26T06:07:36;9.70;;;7.63;;
6878;SDS011;3478;51.462;7.338;2023-06-26T06:12:38;7.23;;;6.50;;
6878;SDS011;3478;51.462;7.338;2023-06-26T06:17:41;7.13;;;6.43;;
6878;SDS011;3478;51.462;7.338;2023-06-26T06:22:43;6.90;;;6.30;;
6878;SDS011;3478;51.462;7.338;2023-06-26T06:27:45;8.03;;;6.80;;
6878;SDS011;3478;51.462;7.338;2023-06-26T06:32:48;8.03;;;5.90;;
6878;SDS011;3478;51.462;7.338;2023-06-26T06:37:51;6.80;;;5.17;;
6878;SDS011;3478;51.462;7.338;2023-06-26T06:42:53;11.50;;;5.73;;
6878;SDS011;3478;51.462;7.338;2023-06-26T06:47:56;6.30;;;4.73;;
6878;SDS011;3478;51.462;7.338;2023-06-26T06:52:58;7.03;;;5.90;;
6878;SDS011;3478;51.462;7.338;2023-06-26T06:58:00;9.57;;;5.50;;
6878;SDS011;3478;51.462;7.338;2023-06-26T07:03:03;7.27;;;5.43;;
6878;SDS011;3478;51.462;7.338;2023-06-26T07:08:05;10.20;;;5.20;;
6878;SDS011;3478;51.462;7.338;2023-06-26T07:13:07;7.47;;;5.13;;
6878;SDS011;3478;51.462;7.338;2023-06-26T07:18:11;4.57;;;3.90;;
6878;SDS011;3478;51.462;7.338;2023-06-26T07:23:12;10.97;;;5.63;;
6878;SDS011;3478;51.462;7.338;2023-06-26T07:28:14;8.53;;;5.60;;
6878;SDS011;3478;51.462;7.338;2023-06-26T07:33:18;6.37;;;5.87;;
6878;SDS011;3478;51.462;7.338;2023-06-26T07:38:20;11.40;;;5.83;;
6878;SDS011;3478;51.462;7.338;2023-06-26T07:43:22;7.07;;;6.40;;
6878;SDS011;3478;51.462;7.338;2023-06-26T07:48:26;5.97;;;4.40;;
6878;SDS011;3478;51.462;7.338;2023-06-26T07:53:27;7.60;;;6.80;;
6878;SDS011;3478;51.462;7.338;2023-06-26T07:58:29;8.53;;;5.83;;
6878;SDS011;3478;51.462;7.338;2023-06-26T08:03:32;7.20;;;6.10;;
6878;SDS011;3478;51.462;7.338;2023-06-26T08:08:34;6.07;;;5.57;;
6878;SDS011;3478;51.462;7.338;2023-06-26T08:13:36;10.07;;;6.40;;
6878;SDS011;3478;51.462;7.338;2023-06-26T08:18:40;10.00;;;7.77;;
6878;SDS011;3478;51.462;7.338;2023-06-26T08:23:42;10.00;;;6.70;;
6878;SDS011;3478;51.462;7.338;2023-06-26T08:28:46;6.37;;;5.77;;
6878;SDS011;3478;51.462;7.338;2023-06-26T08:33:49;11.27;;;6.27;;
6878;SDS011;3478;51.462;7.338;2023-06-26T08:38:51;9.90;;;6.90;;
6878;SDS011;3478;51.462;7.338;2023-06-26T08:43:53;12.10;;;7.10;;
6878;SDS011;3478;51.462;7.338;2023-06-26T08:49:01;14.90;;;9.40;;
6878;SDS011;3478;51.462;7.338;2023-06-26T08:54:08;10.10;;;8.03;;
6878;SDS011;3478;51.462;7.338;2023-06-26T08:59:13;9.30;;;8.50;;
6878;SDS011;3478;51.462;7.338;2023-06-26T09:04:17;15.30;;;11.83;;
6878;SDS011;3478;51.462;7.338;2023-06-26T09:09:19;11.50;;;10.37;;
6878;SDS011;3478;51.462;7.338;2023-06-26T09:14:21;11.40;;;10.30;;
6878;SDS011;3478;51.462;7.338;2023-06-26T09:19:26;14.30;;;11.13;;
6878;SDS011;3478;51.462;7.338;2023-06-26T09:24:27;13.53;;;9.27;;
6878;SDS011;3478;51.462;7.338;2023-06-26T09:29:30;9.03;;;8.13;;
6878;SDS011;3478;51.462;7.338;2023-06-26T09:34:35;9.10;;;7.57;;
6878;SDS011;3478;51.462;7.338;2023-06-26T09:39:37;11.80;;;6.67;;
6878;SDS011;3478;51.462;7.338;2023-06-26T09:44:43;13.03;;;8.17;;
6878;SDS011;3478;51.462;7.338;2023-06-26T09:49:46;11.70;;;8.80;;
6878;SDS011;3478;51.462;7.338;2023-06-26T09:54:48;6.97;;;6.30;;
6878;SDS011;3478;51.462;7.338;2023-06-26T09:59:50;11.23;;;6.73;;
6878;SDS011;3478;51.462;7.338;2023-06-26T10:04:55;7.07;;;5.53;;
6878;SDS011;3478;51.462;7.338;2023-06-26T10:09:58;7.47;;;5.23;;
6878;SDS011;3478;51.462;7.338;2023-06-26T10:15:04;11.73;;;5.70;;
6878;SDS011;3478;51.462;7.338;2023-06-26T10:20:09;12.37;;;6.63;;
6878;SDS011;3478;51.462;7.338;2023-06-26T10:25:12;5.60;;;4.33;;
6878;SDS011;3478;51.462;7.338;2023-06-26T10:30:19;6.43;;;5.27;;
6878;SDS011;3478;51.462;7.338;2023-06-26T10:35:25;6.20;;;5.70;;
6878;SDS011;3478;51.462;7.338;2023-06-26T10:40:28;5.97;;;5.03;;
6878;SDS011;3478;51.462;7.338;2023-06-26T10:45:44;3.60;;;2.80;;
6878;SDS011;3478;51.462;7.338;2023-06-26T10:50:53;2.97;;;2.67;;
6878;SDS011;3478;51.462;7.338;2023-06-26T10:55:56;3.27;;;1.93;;
6878;SDS011;3478;51.462;7.338;2023-06-26T11:06:22;4.63;;;3.50;;
6878;SDS011;3478;51.462;7.338;2023-06-26T11:11:54;3.67;;;2.37;;
6878;SDS011;3478;51.462;7.338;2023-06-26T11:17:07;7.37;;;2.17;;
6878;SDS011;3478;51.462;7.338;2023-06-26T11:22:12;4.60;;;2.53;;
6878;SDS011;3478;51.462;7.338;2023-06-26T11:27:15;3.07;;;2.30;;
6878;SDS011;3478;51.462;7.338;2023-06-26T11:32:17;4.53;;;1.80;;
6878;SDS011;3478;51.462;7.338;2023-06-26T11:37:20;3.70;;;2.80;;
6878;SDS011;3478;51.462;7.338;2023-06-26T11:42:30;4.87;;;3.30;;
6878;SDS011;3478;51.462;7.338;2023-06-26T11:47:33;3.30;;;2.93;;
6878;SDS011;3478;51.462;7.338;2023-06-26T11:52:36;4.23;;;2.47;;
6878;SDS011;3478;51.462;7.338;2023-06-26T11:57:38;3.73;;;2.57;;
6878;SDS011;3478;51.462;7.338;2023-06-26T12:02:40;1.30;;;1.20;;
6878;SDS011;3478;51.462;7.338;2023-06-26T12:07:44;2.40;;;1.57;;
6878;SDS011;3478;51.462;7.338;2023-06-26T12:12:48;2.00;;;1.17;;
6878;SDS011;3478;51.462;7.338;2023-06-26T12:17:50;2.80;;;1.90;;
6878;SDS011;3478;51.462;7.338;2023-06-26T12:22:53;1.93;;;1.17;;
6878;SDS011;3478;51.462;7.338;2023-06-26T12:27:55;2.00;;;1.10;;
6878;SDS011;3478;51.462;7.338;2023-06-26T12:32:57;1.50;;;0.93;;
6878;SDS011;3478;51.462;7.338;2023-06-26T12:38:00;5.87;;;1.70;;
6878;SDS011;3478;51.462;7.338;2023-06-26T12:43:02;1.00;;;0.90;;
6878;SDS011;3478;51.462;7.338;2023-06-26T12:48:08;1.93;;;1.00;;
6878;SDS011;3478;51.462;7.338;2023-06-26T12:53:13;0.90;;;0.60;;
6878;SDS011;3478;51.462;7.338;2023-06-26T12:58:15;1.97;;;1.00;;
6878;SDS011;3478;51.462;7.338;2023-06-26T13:03:17;1.70;;;0.80;;
6878;SDS011;3478;51.462;7.338;2023-06-26T13:08:22;2.70;;;0.60;;
6878;SDS011;3478;51.462;7.338;2023-06-26T13:13:24;2.07;;;0.50;;
6878;SDS011;3478;51.462;7.338;2023-06-26T13:18:25;2.63;;;0.50;;
6878;SDS011;3478;51.462;7.338;2023-06-26T13:23:29;0.70;;;0.50;;
6878;SDS011;3478;51.462;7.338;2023-06-26T13:28:31;1.90;;;0.50;;
6878;SDS011;3478;51.462;7.338;2023-06-26T13:33:33;1.00;;;0.53;;
6878;SDS011;3478;51.462;7.338;2023-06-26T13:38:36;2.10;;;0.70;;
6878;SDS011;3478;51.462;7.338;2023-06-26T13:43:38;2.03;;;0.50;;
6878;SDS011;3478;51.462;7.338;2023-06-26T13:48:40;1.20;;;0.60;;
6878;SDS011;3478;51.462;7.338;2023-06-26T13:53:44;0.77;;;0.43;;
6878;SDS011;3478;51.462;7.338;2023-06-26T13:58:45;3.17;;;0.60;;
6878;SDS011;3478;51.462;7.338;2023-06-26T14:03:47;1.47;;;0.60;;
6878;SDS011;3478;51.462;7.338;2023-06-26T14:08:51;1.43;;;0.70;;
6878;SDS011;3478;51.462;7.338;2023-06-26T14:13:52;2.40;;;0.50;;
6878;SDS011;3478;51.462;7.338;2023-06-26T14:18:54;1.93;;;0.60;;
6878;SDS011;3478;51.462;7.338;2023-06-26T14:23:58;0.97;;;0.40;;
6878;SDS011;3478;51.462;7.338;2023-06-26T14:29:00;3.67;;;0.50;;
6878;SDS011;3478;51.462;7.338;2023-06-26T14:34:02;1.43;;;0.60;;
6878;SDS011;3478;51.462;7.338;2023-06-26T14:39:05;1.27;;;0.40;;
6878;SDS011;3478;51.462;7.338;2023-06-26T14:44:07;1.33;;;0.70;;
6878;SDS011;3478;51.462;7.338;2023-06-26T14:49:11;1.87;;;0.60;;
6878;SDS011;3478;51.462;7.338;2023-06-26T14:54:14;1.27;;;0.60;;
6878;SDS011;3478;51.462;7.338;2023-06-26T14:59:16;2.50;;;0.50;;
6878;SDS011;3478;51.462;7.338;2023-06-26T15:04:18;2.30;;;0.50;;
6878;SDS011;3478;51.462;7.338;2023-06-26T15:09:21;1.90;;;0.40;;
6878;SDS011;3478;51.462;7.338;2023-06-26T15:14:23;4.80;;;0.70;;
6878;SDS011;3478;51.462;7.338;2023-06-26T15:19:25;1.97;;;0.50;;
6878;SDS011;3478;51.462;7.338;2023-06-26T15:24:28;1.90;;;0.70;;
6878;SDS011;3478;51.462;7.338;2023-06-26T15:29:30;1.53;;;0.53;;
6878;SDS011;3478;51.462;7.338;2023-06-26T15:34:32;1.50;;;0.60;;
6878;SDS011;3478;51.462;7.338;2023-06-26T15:39:36;1.10;;;0.50;;
6878;SDS011;3478;51.462;7.338;2023-06-26T15:44:39;1.17;;;0.40;;
6878;SDS011;3478;51.462;7.338;2023-06-26T15:49:41;4.87;;;1.00;;
6878;SDS011;3478;51.462;7.338;2023-06-26T15:54:46;1.30;;;0.80;;
6878;SDS011;3478;51.462;7.338;2023-06-26T15:59:47;1.17;;;0.80;;
6878;SDS011;3478;51.462;7.338;2023-06-26T16:04:50;3.20;;;0.70;;
6878;SDS011;3478;51.462;7.338;2023-06-26T16:09:53;3.43;;;0.70;;
6878;SDS011;3478;51.462;7.338;2023-06-26T16:14:55;2.27;;;0.50;;
6878;SDS011;3478;51.462;7.338;2023-06-26T16:19:57;2.20;;;0.50;;
6878;SDS011;3478;51.462;7.338;2023-06-26T16:25:00;1.53;;;1.00;;
6878;SDS011;3478;51.462;7.338;2023-06-26T16:30:02;2.87;;;0.70;;
6878;SDS011;3478;51.462;7.338;2023-06-26T16:35:05;1.27;;;0.40;;
6878;SDS011;3478;51.462;7.338;2023-06-26T16:40:09;7.27;;;0.60;;
6878;SDS011;3478;51.462;7.338;2023-06-26T16:45:11;0.80;;;0.40;;
6878;SDS011;3478;51.462;7.338;2023-06-26T16:50:13;1.33;;;0.40;;
6878;SDS011;3478;51.462;7.338;2023-06-26T16:55:17;2.27;;;0.53;;
6878;SDS011;3478;51.462;7.338;2023-06-26T17:00:19;1.33;;;0.70;;
6878;SDS011;3478;51.462;7.338;2023-06-26T17:05:21;1.03;;;0.53;;
6878;SDS011;3478;51.462;7.338;2023-06-26T17:10:24;0.80;;;0.40;;
6878;SDS011;3478;51.462;7.338;2023-06-26T17:15:26;0.97;;;0.50;;
6878;SDS011;3478;51.462;7.338;2023-06-26T17:20:28;0.90;;;0.70;;
6878;SDS011;3478;51.462;7.338;2023-06-26T17:25:32;3.37;;;0.50;;
6878;SDS011;3478;51.462;7.338;2023-06-26T17:30:34;2.63;;;0.67;;
6878;SDS011;3478;51.462;7.338;2023-06-26T17:35:36;1.00;;;0.50;;
6878;SDS011;3478;51.462;7.338;2023-06-26T17:40:40;1.20;;;0.43;;
6878;SDS011;3478;51.462;7.338;2023-06-26T17:45:42;2.60;;;0.50;;
6878;SDS011;3478;51.462;7.338;2023-06-26T17:50:44;0.80;;;0.50;;
6878;SDS011;3478;51.462;7.338;2023-06-26T17:55:47;1.20;;;0.40;;
6878;SDS011;3478;51.462;7.338;2023-06-26T18:00:49;1.93;;;0.53;;
6878;SDS011;3478;51.462;7.338;2023-06-26T18:05:51;2.90;;;0.50;;
6878;SDS011;3478;51.462;7.338;2023-06-26T18:10:54;1.57;;;0.40;;
6878;SDS011;3478;51.462;7.338;2023-06-26T18:15:56;0.93;;;0.40;;
6878;SDS011;3478;51.462;7.338;2023-06-26T18:20:58;1.00;;;0.40;;
6878;SDS011;3478;51.462;7.338;2023-06-26T18:26:01;2.50;;;0.40;;
6878;SDS011;3478;51.462;7.338;2023-06-26T18:31:04;3.70;;;0.50;;
6878;SDS011;3478;51.462;7.338;2023-06-26T18:36:07;1.13;;;0.40;;
6878;SDS011;3478;51.462;7.338;2023-06-26T18:41:11;0.87;;;0.50;;
6878;SDS011;3478;51.462;7.338;2023-06-26T18:46:13;1.10;;;0.43;;
6878;SDS011;3478;51.462;7.338;2023-06-26T18:51:15;2.77;;;0.40;;
6878;SDS011;3478;51.462;7.338;2023-06-26T18:56:18;2.80;;;0.57;;
6878;SDS011;3478;51.462;7.338;2023-06-26T19:01:20;1.47;;;0.50;;
6878;SDS011;3478;51.462;7.338;2023-06-26T19:06:22;0.50;;;0.30;;
6878;SDS011;3478;51.462;7.338;2023-06-26T19:11:26;0.60;;;0.40;;
6878;SDS011;3478;51.462;7.338;2023-06-26T19:16:27;1.70;;;0.70;;
6878;SDS011;3478;51.462;7.338;2023-06-26T19:21:29;0.70;;;0.50;;
6878;SDS011;3478;51.462;7.338;2023-06-26T19:26:33;2.40;;;0.60;;
6878;SDS011;3478;51.462;7.338;2023-06-26T19:31:35;1.70;;;0.50;;
6878;SDS011;3478;51.462;7.338;2023-06-26T19:36:37;1.67;;;0.50;;
6878;SDS011;3478;51.462;7.338;2023-06-26T19:41:40;1.97;;;0.47;;
6878;SDS011;3478;51.462;7.338;2023-06-26T19:46:42;2.87;;;0.73;;
6878;SDS011;3478;51.462;7.338;2023-06-26T19:51:44;2.00;;;0.60;;
6878;SDS011;3478;51.462;7.338;2023-06-26T19:56:47;1.17;;;0.50;;
6878;SDS011;3478;51.462;7.338;2023-06-26T20:01:52;1.10;;;0.50;;
6878;SDS011;3478;51.462;7.338;2023-06-26T20:06:54;1.87;;;0.60;;
6878;SDS011;3478;51.462;7.338;2023-06-26T20:12:02;0.90;;;0.40;;
6878;SDS011;3478;51.462;7.338;2023-06-26T20:17:06;1.90;;;0.50;;
6878;SDS011;3478;51.462;7.338;2023-06-26T20:22:08;1.00;;;0.40;;
6878;SDS011;3478;51.462;7.338;2023-06-26T20:27:11;1.13;;;0.60;;
6878;SDS011;3478;51.462;7.338;2023-06-26T20:32:13;2.10;;;0.70;;
6878;SDS011;3478;51.462;7.338;2023-06-26T20:37:15;4.60;;;1.47;;
6878;SDS011;3478;51.462;7.338;2023-06-26T20:42:18;2.00;;;0.50;;
6878;SDS011;3478;51.462;7.338;2023-06-26T20:47:21;8.67;;;1.00;;
6878;SDS011;3478;51.462;7.338;2023-06-26T20:52:30;1.30;;;0.70;;
6878;SDS011;3478;51.462;7.338;2023-06-26T20:57:36;1.67;;;0.67;;
6878;SDS011;3478;51.462;7.338;2023-06-26T21:02:38;0.70;;;0.43;;
6878;SDS011;3478;51.462;7.338;2023-06-26T21:07:40;2.03;;;0.50;;
6878;SDS011;3478;51.462;7.338;2023-06-26T21:12:43;1.67;;;0.50;;
6878;SDS011;3478;51.462;7.338;2023-06-26T21:17:45;2.10;;;0.60;;
6878;SDS011;3478;51.462;7.338;2023-06-26T21:22:47;1.20;;;0.50;;
6878;SDS011;3478;51.462;7.338;2023-06-26T21:27:50;1.37;;;0.70;;
6878;SDS011;3478;51.462;7.338;2023-06-26T21:32:52;1.37;;;0.90;;
6878;SDS011;3478;51.462;7.338;2023-06-26T21:37:54;1.90;;;0.57;;
6878;SDS011;3478;51.462;7.338;2023-06-26T21:42:57;2.00;;;0.60;;
6878;SDS011;3478;51.462;7.338;2023-06-26T21:47:59;2.40;;;0.50;;
6878;SDS011;3478;51.462;7.338;2023-06-26T21:53:01;2.40;;;0.87;;
6878;SDS011;3478;51.462;7.338;2023-06-26T21:58:06;3.87;;;1.53;;
6878;SDS011;3478;51.462;7.338;2023-06-26T22:03:08;0.83;;;0.60;;
6878;SDS011;3478;51.462;7.338;2023-06-26T22:08:12;1.43;;;0.60;;
6878;SDS011;3478;51.462;7.338;2023-06-26T22:13:15;2.43;;;0.67;;
6878;SDS011;3478;51.462;7.338;2023-06-26T22:18:17;1.30;;;0.70;;
6878;SDS011;3478;51.462;7.338;2023-06-26T22:23:19;1.63;;;0.60;;
6878;SDS011;3478;51.462;7.338;2023-06-26T22:28:23;4.97;;;1.10;;
6878;SDS011;3478;51.462;7.338;2023-06-26T22:33:24;5.20;;;1.10;;
6878;SDS011;3478;51.462;7.338;2023-06-26T22:38:26;3.53;;;0.90;;
6878;SDS011;3478;51.462;7.338;2023-06-26T22:43:30;2.83;;;0.87;;
6878;SDS011;3478;51.462;7.338;2023-06-26T22:48:32;1.07;;;0.77;;
6878;SDS011;3478;51.462;7.338;2023-06-26T22:53:37;3.70;;;0.80;;
6878;SDS011;3478;51.462;7.338;2023-06-26T22:58:40;1.20;;;0.60;;
6878;SDS011;3478;51.462;7.338;2023-06-26T23:03:42;2.23;;;0.77;;
6878;SDS011;3478;51.462;7.338;2023-06-26T23:08:44;1.20;;;0.80;;
6878;SDS011;3478;51.462;7.338;2023-06-26T23:13:49;4.33;;;0.70;;
6878;SDS011;3478;51.462;7.338;2023-06-26T23:18:51;3.97;;;0.70;;
6878;SDS011;3478;51.462;7.338;2023-06-26T23:23:53;5.40;;;0.60;;
6878;SDS011;3478;51.462;7.338;2023-06-26T23:28:59;3.47;;;0.93;;
6878;SDS011;3478;51.462;7.338;2023-06-26T23:34:01;2.17;;;0.80;;
6878;SDS011;3478;51.462;7.338;2023-06-26T23:39:03;4.33;;;2.47;;
6878;SDS011;3478;51.462;7.338;2023-06-26T23:44:07;1.47;;;0.80;;
6878;SDS011;3478;51.462;7.338;2023-06-26T23:49:12;1.80;;;0.80;;
6878;SDS011;3478;51.462;7.338;2023-06-26T23:54:14;1.67;;;1.03;;
6878;SDS011;3478;51.462;7.338;2023-06-26T23:59:23;3.23;;;2.00;;
